Terminal Aerodrome Forecast
Issued by NWS

Current Version | Previous Version | Text Only | Print | Product List | Glossary On
Versions: 1 2 3 4 5 6 7 8 9 10 11 12 13 14 15 16 17 18
000
FTAK31 PAJN 270500
TAFAPG
TAF
PAPG 270520Z 2706/2806 00000KT P6SM -SHRA BKN030 BKN040 OVC070
     FM271200 00000KT 5SM BR BCFG VCSH SCT005 BKN060
     FM271700 06005KT P6SM VCSH BKN060
      AMD LTD TO CLD VIS AND WIND 2706/2715=

USA.gov is the U.S. government's official web portal to all federal, state and local government web resources and services.